РПИ Хабаровск

Khabarovsk FIR: chief Sergey Balandin 979135 deputy @ vatrus.info

Сквоки, район применения ICAO EUR-J:

Хабаровск 0201-0277, 1601-1617, 5001-5007, 5020, 5047, 5050-5077, 6601-6627, 6660-6677

Лого Хабаровск
Руководитель РПИ

Sergey Balandin*

Инструкторы РПИ
Ivan Aksenenko (Instructor)
Sergey Balandin (Senior Instructor)
Входит в состав
ЗЦ Хабаровск

Диспетчеры РПИ

Диспетчер Рейтинг Допуски *
Denis Makosov Senior Student UHHH_CTR *, UHSS_R_APP, UHSS_GND, UHWW_TWR, UHWW_GND
Georgii Gamsakhurdiia Controller UHHH_CTR, UHHH_APP, UHWW_GND
Igor Melnick Supervisor UHHH_CTR
Ivan Aksenenko Instructor UHHH_CTR
Konstantin Gorbunov Controller UHHH_CTR *, UHWW_APP
Maxim Osmolovskiy Senior Student UHHH_CTR *, UHHH_APP, UHWW_TWR
Nikolay Yamushev Controller UHHH_CTR
Sergey Balandin Senior Instructor UHHH_CTR
Vadim Kotelenec Senior Student UHHH_CTR *, UHHH_APP
Alexander Shkut Senior Student UHSS_R_APP, UHWW_APP
Atsamaz Khodov Senior Student UHHH_APP
Daniel Cherednichenko Student 2 UHSS_GND, UHSS_R_APP*
Denis Zhilyakov Student UHHH_GND*
Egor Garifulin Student 2 UHHH_R_APP*, UHHH_TWR, UHHH_GND
Evgenii Semendiaev Student UHHH_TWR*
Kirill Babinsev Student 2 UHSS_R_APP*
Kirill Ryabov Student 2 UHHH_GND, UHWW_GND
Maxim Korobko Student 2 UHHH_APP*, UHWW_TWR
Maxim Sukhorukov Student 2 UHHH_TWR
Nikita Brynkov Student UHSS_TWR*
Nikita Zikeev Student 2 UHSS_GND, UHWW_R_APP*, UHWW_GND
Ravil Kohanovsky Student UHWW_GND
Roman Vorontsov Student UHHH_GND*
Timur isikdemir Student UHSS_GND
Yaroslav Tretelnitskiy Student 2 UHWW_TWR, UHWW_GND, UHWW_R_APP*

Аэропорты РПИ

ICAO Город Название Погода
UHBB Благовещенск Игнатьево UHBB 020100Z 24002MPS 9999 SCT033CB 27/21 Q1006 R36/090060 NOSIG RMK QFE737/0983
UHWW Владивосток Владивосток UHWW 020100Z 09003MPS 050V160 9999 BKN013 22/18 Q1012 R25L/0///70 NOSIG RMK QFE757
UHKD Комсомольск-на-Амуре Дзёмги
UHKK Комсомольск-на-Амуре Хурба
UHNN Николаевск-на-Амуре Николаевск-на-Амуре
UHOO Охотск Охотск
UHKG Советская Гавань Каменный Ручей
UHKM Советская Гавань Май-Гатка
UHHH Хабаровск Хабаровск UHHH 020100Z 23003MPS 210V270 9999 SCT024CB 24/19 Q1009 R23R/090060 NOSIG RMK QFE750/1001
UHSS Южно-Сахалинск Хомутово UHSS 020100Z 17004MPS 140V220 9999 NSC 24/18 Q1010 R19/70D NOSIG RMK QFE756/1008
UHBS
UHNA Аян Аян
UHNB Богородское Богородское
UHSB Буревестник Буревестник
UHBE Зея Зея
UHSO Зональное Зональное
UHWK Кавалерово Кавалерово
UHSI Курильск Итуруп
UHBI Магдагачи Магдагачи
UHSN Ноглики Ноглики
UHSH Оха Новостройка
UHWP Пластун Пластун
UHBW Тында Тында
UHHT Хабаровск Хабаровск
UHHY Чумикан Чумикан
UHSK Шахтерск Шахтёрск
UHBP Экимчан Экимчан
UHSM Южно-Курильск Менделеево